Forside
METAR-TAF:

METAR-TAF

Lufthavne :

Kabul, Afghanistan

Breddekreds: 34-38N, længdekreds: 069-12E, højde: 1789 m

Aktuelle vejr

Denne rapport blev lavet for 48 minutter siden, kl. 15:50 UTC
Vind 5 kt fra nordnordvest
Temperatur 2°C
Fugtighed 51%
Tryk 1020 hPa
Sigt: 7000 m

METAR: OAKB 231550Z 33005KT 7000 NSC 02/M07 Q1020 NOSIG RMK A3014 WHT WHT

Tid: 21:08 (16:38 UTC)

Vejrudsigter

Denne rapport blev lavet for 5 timer og 33 minutter siden, kl. 11:05 UTC
Foreløbig gælder fra 23 på 12 UTC til 24 på 12 UTC
Vind 2 kt fra varierende retninger
Sigt 10 km eller mere
ingen skyer under 1500m og ingen cumulonimbus
ændring
fra 23 på 14 UTC til 23 på 16 UTC
Sigt: 5000 m
røg
ændring
fra 23 på 21 UTC til 23 på 23 UTC
Sigt 10 km eller mere
ingen skyer under 1500m og ingen cumulonimbus
Sandsynlighed 30% :
Midlertidig
fra 24 på 02 UTC til 24 på 06 UTC
Sigt: 4000 m
røg

TAF: OAKB 231105Z 2312/2412 VRB02KT CAVOK BECMG 2314/2316 5000 FU BECMG 2321/2323 CAVOK PROB30 TEMPO 2402/2406 4000 FU

Vejrobservationer og prognoser fra mere end 4000 lufthavne (METAR og TAF).

De gule og røde prikker repræsenterer de meteorologiske stationer.

Flyt musen over at se navnet på stationen.

Så klik over at se vejr observationer og prognoser.

At skifte det kort: Klik på de grønne knapper med et sort kors for at zoome ind; på den grønne knap med en bindestreg for at zoome ud; eller på de grønne pile for tilstødende kort.


METAR-TAF: